Time;durP1;ratioP1;P1;durP2;ratioP2;P2;SDS_P1;SDS_P2;PMS_P1;PMS_P2;Temp;Humidity;BMP_temperature;BMP_pressure;BME280_temperature;BME280_humidity;BME280_pressure;Samples;Min_cycle;Max_cycle;Signal;HPM_P1;HPM_P2
2022/10/10 00:01:34;;;;;;;6.57;3.03;;;;;;;;;;5031836;28;20040;-64
2022/10/10 00:04:01;;;;;;;7.03;2.88;;;;;;;;;;5032184;28;20022;-64
2022/10/10 00:06:28;;;;;;;12.98;3.20;;;;;;;;;;5032112;28;20084;-63
2022/10/10 00:08:54;;;;;;;9.20;3.10;;;;;;;;;;5032022;28;20029;-63
2022/10/10 00:11:21;;;;;;;7.13;3.00;;;;;;;;;;5032492;28;20036;-63
2022/10/10 00:13:47;;;;;;;9.43;3.25;;;;;;;;;;5031859;28;20540;-63
2022/10/10 00:16:14;;;;;;;10.55;3.63;;;;;;;;;;5032266;28;20036;-63
2022/10/10 00:18:40;;;;;;;11.15;3.20;;;;;;;;;;5032047;28;20436;-63
2022/10/10 00:21:07;;;;;;;10.18;3.28;;;;;;;;;;5030926;28;20437;-63
2022/10/10 00:23:33;;;;;;;14.05;3.95;;;;;;;;;;5031793;28;20424;-63
2022/10/10 00:25:59;;;;;;;8.70;3.45;;;;;;;;;;5031735;28;20025;-63
2022/10/10 00:28:25;;;;;;;7.07;3.35;;;;;;;;;;5031972;28;20017;-63
2022/10/10 00:30:51;;;;;;;13.05;4.38;;;;;;;;;;5031814;28;20030;-63
2022/10/10 00:33:17;;;;;;;9.82;3.38;;;;;;;;;;5031924;28;20049;-63
2022/10/10 00:35:43;;;;;;;11.82;3.17;;;;;;;;;;5031436;28;20041;-63
2022/10/10 00:38:10;;;;;;;10.82;3.67;;;;;;;;;;5031917;28;20022;-63
2022/10/10 00:40:44;;;;;;;11.85;3.22;;;;;;;;;;5031693;28;20034;-63
2022/10/10 00:43:11;;;;;;;6.82;3.30;;;;;;;;;;5032057;28;20025;-63
2022/10/10 00:45:39;;;;;;;11.18;4.25;;;;;;;;;;5031533;28;20044;-63
2022/10/10 00:48:08;;;;;;;13.13;3.88;;;;;;;;;;5031325;28;20030;-63
2022/10/10 00:50:37;;;;;;;15.10;4.15;;;;;;;;;;5031353;28;20156;-63
2022/10/10 00:53:05;;;;;;;12.27;3.67;;;;;;;;;;5031717;28;20033;-63
2022/10/10 00:55:31;;;;;;;15.75;3.97;;;;;;;;;;5031497;28;20044;-63
2022/10/10 00:57:57;;;;;;;15.13;4.72;;;;;;;;;;5031451;28;20036;-63
2022/10/10 01:00:23;;;;;;;11.73;5.47;;;;;;;;;;5031543;28;20022;-63
2022/10/10 01:02:49;;;;;;;14.77;5.35;;;;;;;;;;5031532;28;20512;-63
2022/10/10 01:05:16;;;;;;;11.48;4.47;;;;;;;;;;5031435;28;20032;-63
2022/10/10 01:07:43;;;;;;;24.73;5.97;;;;;;;;;;5031631;28;20500;-63
2022/10/10 01:10:12;;;;;;;19.67;5.15;;;;;;;;;;5031615;28;20521;-63
2022/10/10 01:12:57;;;;;;;11.95;4.70;;;;;;;;;;5035495;28;20378;-63
2022/10/10 01:15:24;;;;;;;13.25;4.45;;;;;;;;;;5035404;28;20500;-63
2022/10/10 01:17:50;;;;;;;12.00;5.07;;;;;;;;;;5034991;28;20022;-63
2022/10/10 01:20:22;;;;;;;16.20;5.30;;;;;;;;;;5034883;28;20033;-63
2022/10/10 01:22:57;;;;;;;12.15;4.65;;;;;;;;;;5034584;28;20037;-63
2022/10/10 01:25:28;;;;;;;15.68;4.78;;;;;;;;;;5035235;28;20083;-63
2022/10/10 01:28:02;;;;;;;11.50;4.40;;;;;;;;;;5034947;28;20079;-63
2022/10/10 01:30:29;;;;;;;13.25;4.65;;;;;;;;;;5035138;28;20112;-63
2022/10/10 01:32:58;;;;;;;13.70;4.60;;;;;;;;;;5034731;28;20037;-63
2022/10/10 01:35:43;;;;;;;12.73;5.03;;;;;;;;;;5035059;28;20044;-63
2022/10/10 01:38:21;;;;;;;18.55;4.93;;;;;;;;;;5029998;28;20056;-63
2022/10/10 01:41:26;;;;;;;8.45;3.70;;;;;;;;;;5034588;28;20052;-63
2022/10/10 01:43:53;;;;;;;10.45;4.03;;;;;;;;;;5031950;28;20051;-63
2022/10/10 01:46:19;;;;;;;13.18;4.57;;;;;;;;;;5032519;28;20021;-63
2022/10/10 01:48:47;;;;;;;19.08;5.35;;;;;;;;;;5032119;28;20061;-63
2022/10/10 01:51:31;;;;;;;18.98;5.15;;;;;;;;;;5032550;28;20449;-63
2022/10/10 01:54:06;;;;;;;12.80;5.20;;;;;;;;;;5032293;28;20042;-63
2022/10/10 01:56:35;;;;;;;11.70;5.07;;;;;;;;;;5032591;28;20045;-63
2022/10/10 01:59:04;;;;;;;10.63;4.80;;;;;;;;;;5032180;28;20478;-63
2022/10/10 02:01:50;;;;;;;21.02;5.10;;;;;;;;;;5032162;28;20103;-63
2022/10/10 02:04:29;;;;;;;14.50;5.30;;;;;;;;;;5007243;28;20042;-63
2022/10/10 02:07:00;;;;;;;15.68;5.22;;;;;;;;;;5032492;28;20040;-63
2022/10/10 02:09:34;;;;;;;13.48;4.97;;;;;;;;;;5031795;28;20056;-63
2022/10/10 02:12:01;;;;;;;12.63;5.10;;;;;;;;;;5032079;28;20104;-63
2022/10/10 02:14:55;;;;;;;15.23;5.43;;;;;;;;;;5032890;28;20053;-63
2022/10/10 02:17:24;;;;;;;12.10;4.63;;;;;;;;;;5033862;28;20044;-63
2022/10/10 02:19:55;;;;;;;13.63;5.15;;;;;;;;;;5034056;28;20084;-63
2022/10/10 02:22:22;;;;;;;18.08;5.50;;;;;;;;;;5034040;28;20505;-63
2022/10/10 02:24:50;;;;;;;11.93;5.10;;;;;;;;;;5034075;28;20022;-63
2022/10/10 02:27:19;;;;;;;15.75;5.32;;;;;;;;;;5033923;28;20682;-63
2022/10/10 02:29:47;;;;;;;12.15;4.75;;;;;;;;;;5034087;28;20477;-63
2022/10/10 02:32:13;;;;;;;17.40;3.95;;;;;;;;;;5033916;28;20041;-63
2022/10/10 02:34:43;;;;;;;10.82;4.53;;;;;;;;;;5033752;28;20037;-61
2022/10/10 02:37:11;;;;;;;14.52;4.47;;;;;;;;;;5033681;28;20564;-61
2022/10/10 02:39:40;;;;;;;14.48;4.50;;;;;;;;;;5033617;28;20052;-61
2022/10/10 02:42:07;;;;;;;13.60;3.92;;;;;;;;;;5033136;28;20478;-61
2022/10/10 02:44:33;;;;;;;13.82;4.80;;;;;;;;;;5033720;28;20409;-61
2022/10/10 02:47:00;;;;;;;8.90;3.88;;;;;;;;;;5032936;28;20163;-61
2022/10/10 02:49:27;;;;;;;12.45;4.18;;;;;;;;;;5028201;28;20022;-61
2022/10/10 02:51:53;;;;;;;17.35;4.10;;;;;;;;;;5032674;28;20034;-61
2022/10/10 02:54:19;;;;;;;15.95;4.70;;;;;;;;;;5017553;28;20024;-61
2022/10/10 02:56:46;;;;;;;13.27;4.38;;;;;;;;;;5033422;28;20033;-61
2022/10/10 02:59:12;;;;;;;17.17;5.05;;;;;;;;;;5033005;28;20029;-62
2022/10/10 03:01:38;;;;;;;12.02;4.80;;;;;;;;;;5032768;28;20038;-61
2022/10/10 03:04:04;;;;;;;9.80;4.85;;;;;;;;;;5032539;28;20107;-61
2022/10/10 03:06:30;;;;;;;16.00;4.72;;;;;;;;;;5033347;28;20029;-62
2022/10/10 03:08:56;;;;;;;14.60;4.85;;;;;;;;;;5032923;28;20375;-61
2022/10/10 03:11:22;;;;;;;15.45;4.72;;;;;;;;;;5032873;28;20033;-61
2022/10/10 03:13:48;;;;;;;14.18;4.43;;;;;;;;;;5032972;28;20091;-61
2022/10/10 03:16:14;;;;;;;16.42;5.95;;;;;;;;;;5032208;28;20071;-61
2022/10/10 03:18:41;;;;;;;12.25;4.85;;;;;;;;;;5032911;28;20516;-61
2022/10/10 03:21:07;;;;;;;13.23;4.85;;;;;;;;;;5032472;28;20064;-61
2022/10/10 03:23:34;;;;;;;15.18;5.03;;;;;;;;;;5032816;28;20026;-61
2022/10/10 03:26:01;;;;;;;13.25;4.90;;;;;;;;;;5031361;28;20448;-61
2022/10/10 03:28:27;;;;;;;11.73;4.43;;;;;;;;;;5031953;28;20025;-61
2022/10/10 03:30:53;;;;;;;15.60;5.43;;;;;;;;;;5033255;28;20041;-61
2022/10/10 03:33:19;;;;;;;15.85;6.13;;;;;;;;;;5034194;28;20035;-61
2022/10/10 03:35:45;;;;;;;16.42;5.00;;;;;;;;;;5032680;28;20033;-61
2022/10/10 03:38:12;;;;;;;19.40;6.13;;;;;;;;;;5032335;28;20398;-62
2022/10/10 03:40:42;;;;;;;13.65;5.63;;;;;;;;;;5031954;28;20144;-61
2022/10/10 03:43:12;;;;;;;16.48;5.63;;;;;;;;;;5031376;28;20450;-61
2022/10/10 03:45:38;;;;;;;10.32;5.18;;;;;;;;;;5027123;28;20033;-61
2022/10/10 03:48:05;;;;;;;11.27;5.38;;;;;;;;;;5027366;28;20029;-61
2022/10/10 03:50:31;;;;;;;11.55;5.90;;;;;;;;;;5028425;28;20032;-61
2022/10/10 03:52:57;;;;;;;17.75;5.20;;;;;;;;;;5029855;28;20527;-61
2022/10/10 03:55:23;;;;;;;15.90;5.20;;;;;;;;;;5020714;28;20065;-61
2022/10/10 03:57:49;;;;;;;22.15;4.95;;;;;;;;;;5023250;28;20112;-61
2022/10/10 04:00:16;;;;;;;12.27;4.22;;;;;;;;;;5023982;28;20439;-61
2022/10/10 04:02:42;;;;;;;17.52;5.03;;;;;;;;;;5025790;28;20021;-61
2022/10/10 04:05:08;;;;;;;28.55;7.53;;;;;;;;;;5031330;28;20034;-61
2022/10/10 04:07:34;;;;;;;21.55;5.80;;;;;;;;;;5031367;28;20366;-61
2022/10/10 04:10:00;;;;;;;42.30;8.70;;;;;;;;;;5021361;28;20080;-69
2022/10/10 04:12:27;;;;;;;35.22;7.93;;;;;;;;;;5024641;28;20053;-61
2022/10/10 04:14:53;;;;;;;26.02;7.68;;;;;;;;;;5029389;28;20489;-61
2022/10/10 04:17:19;;;;;;;37.63;8.90;;;;;;;;;;5022756;28;20049;-61
2022/10/10 04:19:45;;;;;;;26.35;8.65;;;;;;;;;;5022205;28;20088;-61
2022/10/10 04:22:11;;;;;;;35.97;9.95;;;;;;;;;;5031015;28;20513;-61
2022/10/10 04:24:37;;;;;;;39.38;9.40;;;;;;;;;;5033081;28;20018;-61
2022/10/10 04:27:03;;;;;;;32.20;9.05;;;;;;;;;;5032052;28;20104;-61
2022/10/10 04:29:29;;;;;;;38.88;8.60;;;;;;;;;;5031373;28;20489;-61
2022/10/10 04:31:55;;;;;;;44.90;11.73;;;;;;;;;;5029158;28;20021;-61
2022/10/10 04:34:22;;;;;;;38.60;10.48;;;;;;;;;;5030487;28;20017;-61
2022/10/10 04:36:48;;;;;;;44.30;10.88;;;;;;;;;;5045059;28;20025;-61
2022/10/10 04:39:14;;;;;;;41.17;10.52;;;;;;;;;;5038891;28;20025;-61
2022/10/10 04:41:40;;;;;;;30.05;9.70;;;;;;;;;;5034701;28;20037;-60
2022/10/10 04:44:06;;;;;;;43.70;9.63;;;;;;;;;;5031426;28;20066;-61
2022/10/10 04:46:32;;;;;;;45.78;9.85;;;;;;;;;;5035066;28;20051;-61
2022/10/10 04:48:58;;;;;;;38.92;9.68;;;;;;;;;;5035542;28;20078;-61
2022/10/10 04:51:24;;;;;;;46.38;10.60;;;;;;;;;;5035058;28;20021;-61
2022/10/10 04:53:50;;;;;;;37.83;9.55;;;;;;;;;;5034486;28;20048;-61
2022/10/10 04:56:16;;;;;;;48.22;9.43;;;;;;;;;;5033314;28;20032;-61
2022/10/10 04:58:43;;;;;;;45.92;9.88;;;;;;;;;;5028734;28;20474;-61
2022/10/10 05:01:09;;;;;;;39.95;9.90;;;;;;;;;;5029819;28;20026;-61
2022/10/10 05:03:35;;;;;;;33.75;9.48;;;;;;;;;;5038365;28;20057;-61
2022/10/10 05:06:01;;;;;;;36.50;9.00;;;;;;;;;;5034732;28;20466;-61
2022/10/10 05:08:27;;;;;;;42.92;9.50;;;;;;;;;;5030169;28;20033;-61
2022/10/10 05:10:53;;;;;;;38.03;10.48;;;;;;;;;;5019083;28;20506;-61
2022/10/10 05:13:19;;;;;;;44.03;9.70;;;;;;;;;;5019526;28;20037;-61
2022/10/10 05:15:49;;;;;;;57.10;11.77;;;;;;;;;;5029657;28;20025;-61
2022/10/10 05:18:15;;;;;;;45.15;9.90;;;;;;;;;;5034992;28;20039;-62
2022/10/10 05:20:42;;;;;;;43.60;10.05;;;;;;;;;;5033496;28;20037;-61
2022/10/10 05:23:09;;;;;;;44.72;9.77;;;;;;;;;;5025077;28;20029;-61
2022/10/10 05:25:35;;;;;;;50.67;9.73;;;;;;;;;;5035671;28;20079;-62
2022/10/10 05:28:01;;;;;;;40.80;10.60;;;;;;;;;;5034559;28;20056;-70
2022/10/10 05:30:27;;;;;;;50.63;9.77;;;;;;;;;;5034202;28;20029;-62
2022/10/10 05:32:53;;;;;;;44.55;9.88;;;;;;;;;;5033804;28;20094;-61
2022/10/10 05:35:19;;;;;;;44.05;10.02;;;;;;;;;;5034141;28;20021;-61
2022/10/10 05:37:45;;;;;;;27.80;8.75;;;;;;;;;;5032490;28;20034;-61
2022/10/10 05:40:11;;;;;;;34.67;10.52;;;;;;;;;;5030125;28;20036;-68
2022/10/10 05:42:37;;;;;;;29.25;8.48;;;;;;;;;;5039419;28;20531;-62
2022/10/10 05:45:04;;;;;;;34.72;9.07;;;;;;;;;;5031832;28;20036;-62
2022/10/10 05:47:30;;;;;;;44.05;9.70;;;;;;;;;;5030830;28;20401;-62
2022/10/10 05:49:56;;;;;;;37.53;9.40;;;;;;;;;;5020359;28;20038;-62
2022/10/10 05:52:22;;;;;;;26.33;8.70;;;;;;;;;;5015073;28;20443;-62
2022/10/10 05:54:48;;;;;;;40.55;9.55;;;;;;;;;;5014541;28;20033;-62
2022/10/10 05:57:14;;;;;;;37.83;8.75;;;;;;;;;;5013930;28;20041;-62
2022/10/10 05:59:40;;;;;;;46.22;9.05;;;;;;;;;;5015511;28;20045;-62
2022/10/10 06:02:06;;;;;;;29.45;8.60;;;;;;;;;;5031949;28;20027;-62
2022/10/10 06:04:32;;;;;;;41.03;9.23;;;;;;;;;;5034484;28;20048;-62
2022/10/10 06:06:58;;;;;;;33.92;8.63;;;;;;;;;;5032010;28;20029;-63
2022/10/10 06:09:24;;;;;;;42.35;9.82;;;;;;;;;;5032426;28;20079;-63
2022/10/10 06:11:50;;;;;;;39.95;8.98;;;;;;;;;;5034280;28;20486;-62
2022/10/10 06:14:17;;;;;;;36.90;9.32;;;;;;;;;;5033224;28;20112;-62
2022/10/10 06:16:44;;;;;;;33.30;8.63;;;;;;;;;;5034292;28;20047;-62
2022/10/10 06:19:10;;;;;;;38.25;9.07;;;;;;;;;;5035110;28;20473;-62
2022/10/10 06:21:36;;;;;;;32.08;9.25;;;;;;;;;;5034270;28;20059;-62
2022/10/10 06:24:02;;;;;;;43.45;9.82;;;;;;;;;;5033756;28;20470;-62
2022/10/10 06:26:29;;;;;;;35.30;8.75;;;;;;;;;;5034430;28;20466;-62
2022/10/10 06:28:55;;;;;;;40.80;10.73;;;;;;;;;;5034154;28;20026;-62
2022/10/10 06:31:21;;;;;;;45.25;11.40;;;;;;;;;;5034252;28;20055;-62
2022/10/10 06:33:48;;;;;;;54.30;12.85;;;;;;;;;;5033837;28;20029;-61
2022/10/10 06:36:14;;;;;;;42.03;10.77;;;;;;;;;;5033998;28;20030;-62
2022/10/10 06:38:41;;;;;;;40.38;10.45;;;;;;;;;;5033684;28;20030;-61
2022/10/10 06:41:07;;;;;;;46.55;10.65;;;;;;;;;;5033959;28;20112;-62
2022/10/10 06:43:34;;;;;;;48.75;12.25;;;;;;;;;;5033751;28;20394;-62
2022/10/10 06:46:00;;;;;;;42.03;13.52;;;;;;;;;;5033897;28;20053;-62
2022/10/10 06:48:28;;;;;;;45.92;12.40;;;;;;;;;;5033831;28;20444;-62
2022/10/10 06:50:55;;;;;;;43.70;11.50;;;;;;;;;;5032380;28;20405;-62
2022/10/10 06:53:21;;;;;;;53.08;12.15;;;;;;;;;;5033545;28;20401;-62
2022/10/10 06:55:47;;;;;;;51.92;12.65;;;;;;;;;;5033653;28;20541;-62
2022/10/10 06:58:13;;;;;;;53.63;14.95;;;;;;;;;;5033627;28;20029;-62
2022/10/10 07:00:40;;;;;;;54.67;11.20;;;;;;;;;;5033487;28;20535;-62
2022/10/10 07:03:06;;;;;;;63.17;12.63;;;;;;;;;;5033847;28;20017;-62
2022/10/10 07:05:32;;;;;;;44.95;11.15;;;;;;;;;;5033521;28;20029;-62
2022/10/10 07:07:58;;;;;;;43.95;13.73;;;;;;;;;;5032863;28;20068;-62
2022/10/10 07:10:24;;;;;;;46.55;10.48;;;;;;;;;;5033580;28;20106;-62
2022/10/10 07:12:50;;;;;;;41.33;10.18;;;;;;;;;;5033129;28;20033;-62
2022/10/10 07:15:17;;;;;;;30.38;9.55;;;;;;;;;;5033399;28;20088;-62
2022/10/10 07:17:43;;;;;;;35.30;9.98;;;;;;;;;;5033099;28;20029;-62
2022/10/10 07:20:09;;;;;;;24.73;7.85;;;;;;;;;;5032835;28;20034;-62
2022/10/10 07:22:35;;;;;;;25.05;8.52;;;;;;;;;;5032837;28;20397;-62
2022/10/10 07:25:01;;;;;;;25.05;7.20;;;;;;;;;;5032891;28;20044;-62
2022/10/10 07:27:27;;;;;;;19.98;7.03;;;;;;;;;;5033074;28;20024;-62
2022/10/10 07:29:54;;;;;;;30.80;8.35;;;;;;;;;;5032719;28;20481;-62
2022/10/10 07:32:20;;;;;;;28.85;8.73;;;;;;;;;;5033012;28;20033;-62
2022/10/10 07:34:46;;;;;;;29.15;8.27;;;;;;;;;;5032749;28;20370;-62
2022/10/10 07:37:12;;;;;;;23.02;8.43;;;;;;;;;;5032433;28;20028;-62
2022/10/10 07:39:38;;;;;;;24.50;6.78;;;;;;;;;;5032725;28;20628;-62
2022/10/10 07:42:04;;;;;;;29.13;8.38;;;;;;;;;;5032508;28;20022;-62
2022/10/10 07:44:30;;;;;;;30.73;8.27;;;;;;;;;;5032811;28;20440;-62
2022/10/10 07:46:56;;;;;;;30.25;8.38;;;;;;;;;;5032718;28;20080;-62
2022/10/10 07:49:22;;;;;;;33.30;8.98;;;;;;;;;;5032445;28;20025;-62
2022/10/10 07:51:48;;;;;;;40.78;9.25;;;;;;;;;;5032642;28;20034;-62
2022/10/10 07:54:14;;;;;;;39.42;9.57;;;;;;;;;;5032332;28;20644;-62
2022/10/10 07:56:40;;;;;;;44.53;9.93;;;;;;;;;;5032701;28;20041;-62
2022/10/10 07:59:06;;;;;;;41.33;9.75;;;;;;;;;;5032511;28;20040;-62
2022/10/10 08:01:32;;;;;;;51.38;9.43;;;;;;;;;;5032367;28;20389;-62
2022/10/10 08:03:59;;;;;;;54.47;10.65;;;;;;;;;;5031988;28;20036;-62
2022/10/10 08:06:25;;;;;;;49.33;8.88;;;;;;;;;;5032461;28;20026;-62
2022/10/10 08:08:51;;;;;;;39.72;7.82;;;;;;;;;;5032144;28;20029;-62
2022/10/10 08:11:17;;;;;;;25.27;6.45;;;;;;;;;;5032389;28;20041;-62
2022/10/10 08:13:43;;;;;;;31.65;6.30;;;;;;;;;;5032437;28;20504;-62
2022/10/10 08:16:09;;;;;;;43.90;4.90;;;;;;;;;;5032289;28;20021;-62
2022/10/10 08:18:35;;;;;;;26.50;4.20;;;;;;;;;;5032033;28;20037;-62
2022/10/10 08:21:03;;;;;;;24.20;4.30;;;;;;;;;;5031657;28;20436;-62
2022/10/10 08:23:29;;;;;;;33.47;4.63;;;;;;;;;;5032269;28;20429;-62
2022/10/10 08:25:59;;;;;;;36.97;5.63;;;;;;;;;;5032099;28;20029;-62
2022/10/10 08:28:25;;;;;;;19.63;3.90;;;;;;;;;;5032062;28;20033;-62
2022/10/10 08:30:51;;;;;;;21.88;4.57;;;;;;;;;;5031835;28;20072;-62
2022/10/10 08:33:18;;;;;;;25.65;4.80;;;;;;;;;;5031810;28;20075;-62
2022/10/10 08:35:44;;;;;;;15.07;3.17;;;;;;;;;;5032097;28;20040;-61
2022/10/10 08:38:10;;;;;;;17.95;4.05;;;;;;;;;;5031810;28;20148;-62
2022/10/10 08:41:02;;;;;;;20.85;3.03;;;;;;;;;;5031737;28;20065;-62
2022/10/10 08:43:40;;;;;;;13.77;3.07;;;;;;;;;;5031172;28;20140;-62
2022/10/10 08:46:14;;;;;;;21.60;4.50;;;;;;;;;;5031809;28;20030;-62
2022/10/10 08:48:40;;;;;;;19.42;2.95;;;;;;;;;;5031392;28;20068;-62
2022/10/10 08:51:09;;;;;;;24.60;3.15;;;;;;;;;;5031713;28;20029;-62
2022/10/10 08:53:43;;;;;;;19.58;2.85;;;;;;;;;;5031860;28;20041;-62
2022/10/10 08:56:13;;;;;;;25.10;3.55;;;;;;;;;;5031851;28;20029;-62
2022/10/10 08:58:41;;;;;;;15.15;3.50;;;;;;;;;;5032085;28;20041;-62
2022/10/10 09:01:14;;;;;;;22.45;3.92;;;;;;;;;;5031621;28;20030;-62
2022/10/10 09:03:46;;;;;;;9.88;2.58;;;;;;;;;;5031477;28;20021;-62
2022/10/10 09:06:18;;;;;;;20.45;2.92;;;;;;;;;;5031676;28;20500;-62
2022/10/10 09:08:47;;;;;;;16.77;2.67;;;;;;;;;;5031806;28;20628;-62
2022/10/10 09:11:20;;;;;;;16.80;3.03;;;;;;;;;;5031427;28;20107;-62
2022/10/10 09:13:56;;;;;;;12.88;2.65;;;;;;;;;;5031816;28;20037;-62
2022/10/10 09:16:42;;;;;;;15.73;2.55;;;;;;;;;;5031625;28;20041;-61
2022/10/10 09:19:11;;;;;;;15.82;2.70;;;;;;;;;;5031521;28;20456;-62
2022/10/10 09:21:39;;;;;;;18.40;3.42;;;;;;;;;;5031726;28;20104;-62
2022/10/10 09:24:23;;;;;;;15.18;2.72;;;;;;;;;;5031468;28;20057;-61
2022/10/10 09:26:57;;;;;;;16.80;3.05;;;;;;;;;;5031405;28;20045;-62
2022/10/10 09:29:30;;;;;;;15.30;2.72;;;;;;;;;;5031668;28;20026;-62
2022/10/10 09:32:04;;;;;;;18.15;3.35;;;;;;;;;;5032500;28;20029;-62
2022/10/10 09:34:34;;;;;;;17.90;2.50;;;;;;;;;;5035219;28;20048;-62
2022/10/10 09:37:01;;;;;;;13.02;2.45;;;;;;;;;;5034866;28;20060;-62
2022/10/10 09:39:42;;;;;;;27.85;3.63;;;;;;;;;;5035084;28;20038;-62
2022/10/10 09:42:13;;;;;;;23.25;3.90;;;;;;;;;;5034740;28;20032;-62
2022/10/10 09:44:41;;;;;;;20.65;3.45;;;;;;;;;;5035234;28;20037;-62
2022/10/10 09:47:09;;;;;;;23.20;3.58;;;;;;;;;;5034562;28;20025;-62
2022/10/10 09:49:35;;;;;;;22.10;3.33;;;;;;;;;;5034938;28;20034;-62
2022/10/10 09:52:02;;;;;;;24.00;3.50;;;;;;;;;;5034759;28;20390;-61
2022/10/10 09:54:29;;;;;;;17.40;3.63;;;;;;;;;;5035024;28;20021;-62
2022/10/10 09:56:56;;;;;;;27.73;4.55;;;;;;;;;;5034598;28;20065;-62
2022/10/10 09:59:36;;;;;;;22.52;4.35;;;;;;;;;;5034747;28;20484;-62
2022/10/10 10:02:03;;;;;;;23.38;4.25;;;;;;;;;;5032898;28;20030;-62
2022/10/10 10:04:32;;;;;;;29.58;4.10;;;;;;;;;;5034812;28;20075;-62
2022/10/10 10:07:07;;;;;;;32.67;5.50;;;;;;;;;;5034501;28;20034;-62
2022/10/10 10:09:33;;;;;;;33.88;4.28;;;;;;;;;;5034273;28;20073;-62
2022/10/10 10:12:00;;;;;;;25.52;3.97;;;;;;;;;;5034331;28;20037;-64
2022/10/10 10:14:28;;;;;;;34.30;4.80;;;;;;;;;;5034320;28;20481;-64
2022/10/10 10:16:55;;;;;;;22.90;4.40;;;;;;;;;;5034734;28;20029;-64
2022/10/10 10:19:38;;;;;;;20.88;3.83;;;;;;;;;;5034376;28;20034;-64
2022/10/10 10:22:05;;;;;;;28.67;4.05;;;;;;;;;;5034082;28;20113;-64
2022/10/10 10:24:35;;;;;;;21.95;4.28;;;;;;;;;;5034406;28;20041;-64
2022/10/10 10:27:08;;;;;;;23.48;4.75;;;;;;;;;;5034017;28;20037;-64
2022/10/10 10:29:35;;;;;;;23.55;4.20;;;;;;;;;;5034003;28;20065;-64
2022/10/10 10:32:07;;;;;;;24.67;3.58;;;;;;;;;;5033914;28;20386;-64
2022/10/10 10:34:46;;;;;;;20.17;3.83;;;;;;;;;;5034277;28;20490;-64
2022/10/10 10:37:23;;;;;;;32.22;4.93;;;;;;;;;;5034077;28;20099;-64
2022/10/10 10:39:49;;;;;;;27.50;4.10;;;;;;;;;;5034036;28;20041;-64
2022/10/10 10:42:15;;;;;;;23.77;4.30;;;;;;;;;;5033345;28;20041;-64
2022/10/10 10:44:46;;;;;;;26.40;4.47;;;;;;;;;;5033583;28;20585;-64
2022/10/10 10:47:21;;;;;;;21.08;3.95;;;;;;;;;;5033806;28;20059;-64
2022/10/10 10:50:11;;;;;;;23.70;3.75;;;;;;;;;;5033831;28;20029;-62
2022/10/10 10:52:44;;;;;;;33.03;3.60;;;;;;;;;;5033747;28;20048;-62
2022/10/10 10:55:17;;;;;;;21.00;4.13;;;;;;;;;;5033587;28;20030;-62
2022/10/10 10:58:02;;;;;;;32.05;4.03;;;;;;;;;;5033661;28;20406;-62
2022/10/10 11:00:30;;;;;;;15.38;3.95;;;;;;;;;;5033515;28;20037;-62
2022/10/10 11:03:15;;;;;;;26.90;4.00;;;;;;;;;;5033736;28;20029;-61
2022/10/10 11:05:44;;;;;;;24.20;4.13;;;;;;;;;;5033492;28;20030;-62
2022/10/10 11:08:16;;;;;;;18.90;3.55;;;;;;;;;;5033158;28;20029;-62
2022/10/10 11:10:45;;;;;;;18.17;3.33;;;;;;;;;;5033280;28;20045;-62
2022/10/10 11:13:34;;;;;;;21.48;3.78;;;;;;;;;;5033017;28;20276;-62
2022/10/10 11:16:12;;;;;;;14.68;3.50;;;;;;;;;;5033017;28;20112;-62
2022/10/10 11:18:42;;;;;;;17.52;3.70;;;;;;;;;;5033302;28;20044;-62
2022/10/10 11:21:14;;;;;;;20.70;3.50;;;;;;;;;;5033032;28;20116;-62
2022/10/10 11:24:02;;;;;;;20.48;3.35;;;;;;;;;;5033146;28;20075;-62
2022/10/10 11:26:35;;;;;;;22.77;3.83;;;;;;;;;;5032770;28;20036;-62
2022/10/10 11:29:05;;;;;;;28.35;3.78;;;;;;;;;;5032866;28;20386;-62
2022/10/10 11:31:51;;;;;;;15.82;2.70;;;;;;;;;;5033117;28;20426;-62
2022/10/10 11:34:24;;;;;;;17.35;2.13;;;;;;;;;;5032729;28;20029;-62
2022/10/10 11:36:51;;;;;;;9.73;2.28;;;;;;;;;;5032744;28;20044;-62
2022/10/10 11:39:19;;;;;;;13.43;2.88;;;;;;;;;;5032656;28;20034;-62
2022/10/10 11:41:51;;;;;;;12.38;2.15;;;;;;;;;;5032500;28;20048;-62
2022/10/10 11:44:38;;;;;;;15.40;2.67;;;;;;;;;;5032677;28;20489;-62
2022/10/10 11:47:13;;;;;;;13.30;2.17;;;;;;;;;;5032519;28;20037;-62
2022/10/10 11:49:46;;;;;;;15.85;1.85;;;;;;;;;;5032629;28;20075;-62
2022/10/10 11:52:30;;;;;;;9.80;2.15;;;;;;;;;;5032589;28;20114;-62
2022/10/10 11:54:59;;;;;;;13.45;2.40;;;;;;;;;;5031989;28;20025;-62
2022/10/10 11:57:36;;;;;;;11.68;2.08;;;;;;;;;;5032033;28;20029;-62
2022/10/10 12:00:05;;;;;;;10.57;1.58;;;;;;;;;;5032469;28;20466;-62
2022/10/10 12:02:36;;;;;;;7.78;1.48;;;;;;;;;;5032423;28;20143;-62
2022/10/10 12:05:04;;;;;;;11.98;2.08;;;;;;;;;;5032656;28;20061;-62
2022/10/10 12:07:46;;;;;;;9.00;2.22;;;;;;;;;;5032509;28;20025;-62
2022/10/10 12:10:20;;;;;;;8.95;1.55;;;;;;;;;;5032048;28;20076;-62
2022/10/10 12:12:47;;;;;;;12.75;2.20;;;;;;;;;;5032047;28;20061;-62
2022/10/10 12:15:23;;;;;;;24.85;3.65;;;;;;;;;;5032159;28;20029;-62
2022/10/10 12:17:50;;;;;;;9.43;1.90;;;;;;;;;;5032532;28;20477;-62
2022/10/10 12:20:16;;;;;;;11.38;2.72;;;;;;;;;;5032097;28;20055;-62
2022/10/10 12:22:43;;;;;;;13.48;2.38;;;;;;;;;;5032258;28;20029;-62
2022/10/10 12:25:24;;;;;;;15.43;2.55;;;;;;;;;;5032038;28;20490;-62
2022/10/10 12:28:02;;;;;;;16.35;2.50;;;;;;;;;;5032113;28;20040;-61
2022/10/10 12:30:28;;;;;;;18.35;2.30;;;;;;;;;;5031954;28;20064;-62
2022/10/10 12:32:55;;;;;;;12.23;2.20;;;;;;;;;;5032169;28;20037;-62
2022/10/10 12:35:30;;;;;;;12.60;1.95;;;;;;;;;;5031997;28;20053;-62
2022/10/10 12:38:23;;;;;;;16.52;3.13;;;;;;;;;;5032013;28;20040;-62
2022/10/10 12:41:04;;;;;;;9.10;2.00;;;;;;;;;;5031285;28;20402;-62
2022/10/10 12:43:37;;;;;;;20.00;2.42;;;;;;;;;;5031874;28;20025;-62
2022/10/10 12:46:22;;;;;;;14.43;2.28;;;;;;;;;;5032129;28;20476;-62
2022/10/10 12:48:59;;;;;;;17.15;2.38;;;;;;;;;;5032015;28;20029;-62
2022/10/10 12:51:25;;;;;;;12.48;2.15;;;;;;;;;;5031778;28;20496;-62
2022/10/10 12:53:55;;;;;;;17.85;2.45;;;;;;;;;;5032037;28;20026;-62
2022/10/10 12:56:39;;;;;;;13.43;3.03;;;;;;;;;;5031693;28;20034;-61
2022/10/10 12:59:06;;;;;;;17.38;3.40;;;;;;;;;;5031949;28;20092;-61
2022/10/10 13:01:36;;;;;;;14.38;2.30;;;;;;;;;;5031629;28;20030;-62
2022/10/10 13:04:02;;;;;;;14.00;2.90;;;;;;;;;;5031758;28;20084;-62
2022/10/10 13:06:31;;;;;;;18.38;3.22;;;;;;;;;;5034003;28;20076;-62
2022/10/10 13:08:58;;;;;;;12.43;2.40;;;;;;;;;;5035320;28;20065;-62
2022/10/10 13:11:24;;;;;;;20.75;2.70;;;;;;;;;;5035791;28;20041;-62
2022/10/10 13:13:51;;;;;;;14.23;2.35;;;;;;;;;;5035487;28;20025;-61
2022/10/10 13:16:19;;;;;;;19.63;4.32;;;;;;;;;;5035544;28;20148;-62
2022/10/10 13:18:52;;;;;;;9.63;2.47;;;;;;;;;;5035458;28;20075;-61
2022/10/10 13:21:24;;;;;;;15.18;2.63;;;;;;;;;;5035247;28;20029;-62
2022/10/10 13:23:52;;;;;;;13.63;2.83;;;;;;;;;;5035189;28;20445;-62
2022/10/10 13:26:21;;;;;;;18.02;2.83;;;;;;;;;;5035219;28;20025;-62
2022/10/10 13:28:47;;;;;;;14.40;3.20;;;;;;;;;;5035129;28;20017;-61
2022/10/10 13:31:14;;;;;;;25.52;2.78;;;;;;;;;;5035175;28;20114;-62
2022/10/10 13:33:40;;;;;;;15.77;2.67;;;;;;;;;;5035436;28;20040;-61
2022/10/10 13:36:08;;;;;;;16.50;2.72;;;;;;;;;;5035158;28;20060;-61
2022/10/10 13:38:34;;;;;;;15.18;2.33;;;;;;;;;;5033660;28;20036;-62
2022/10/10 13:41:03;;;;;;;18.80;2.60;;;;;;;;;;5033171;28;20044;-61
2022/10/10 13:43:30;;;;;;;15.98;2.67;;;;;;;;;;5035171;28;20033;-61
2022/10/10 13:45:57;;;;;;;23.83;2.85;;;;;;;;;;5035730;28;20017;-61
2022/10/10 13:48:35;;;;;;;14.43;2.30;;;;;;;;;;5035474;28;20415;-61
2022/10/10 13:51:06;;;;;;;12.45;2.60;;;;;;;;;;5034767;28;20111;-61
2022/10/10 13:53:34;;;;;;;10.70;2.53;;;;;;;;;;5035062;28;20053;-61
2022/10/10 13:56:03;;;;;;;19.35;3.85;;;;;;;;;;5035590;28;20108;-61
2022/10/10 13:58:30;;;;;;;19.25;2.80;;;;;;;;;;5033842;28;20501;-61
2022/10/10 14:00:58;;;;;;;11.57;2.35;;;;;;;;;;5034430;28;20057;-61
2022/10/10 14:03:24;;;;;;;14.43;2.80;;;;;;;;;;5034990;28;20557;-61
2022/10/10 14:05:50;;;;;;;14.50;4.43;;;;;;;;;;5035301;28;20058;-61
2022/10/10 14:08:18;;;;;;;20.85;2.78;;;;;;;;;;5034605;28;20112;-61
2022/10/10 14:10:55;;;;;;;10.85;2.38;;;;;;;;;;5035006;28;20056;-61
2022/10/10 14:13:21;;;;;;;17.05;3.63;;;;;;;;;;5035031;28;20030;-61
2022/10/10 14:15:48;;;;;;;14.18;2.75;;;;;;;;;;5035130;28;20361;-61
2022/10/10 14:18:25;;;;;;;19.92;3.28;;;;;;;;;;5033658;28;20041;-61
2022/10/10 14:20:52;;;;;;;25.02;2.55;;;;;;;;;;5033940;28;20056;-61
2022/10/10 14:23:18;;;;;;;19.98;2.83;;;;;;;;;;5034108;28;20049;-61
2022/10/10 14:25:46;;;;;;;19.45;3.50;;;;;;;;;;5034125;28;20473;-61
2022/10/10 14:28:17;;;;;;;13.80;2.20;;;;;;;;;;5033613;28;20053;-61
2022/10/10 14:30:44;;;;;;;17.45;2.35;;;;;;;;;;5033886;28;20025;-61
2022/10/10 14:33:13;;;;;;;9.88;2.15;;;;;;;;;;5033694;28;20064;-61
2022/10/10 14:35:40;;;;;;;15.88;2.67;;;;;;;;;;5032896;28;20099;-61
2022/10/10 14:38:06;;;;;;;9.88;2.78;;;;;;;;;;5033706;28;20121;-61
2022/10/10 14:40:33;;;;;;;16.20;2.45;;;;;;;;;;5032751;28;20033;-62